Time;durP1;ratioP1;P1;durP2;ratioP2;P2;SDS_P1;SDS_P2;PMS_P1;PMS_P2;Temp;Humidity;BMP_temperature;BMP_pressure;BME280_temperature;BME280_humidity;BME280_pressure;Samples;Min_cycle;Max_cycle;Signal;HPM_P1;HPM_P2
2024/03/25 00:01:36;;;;;;;20.67;7.35;;;;;;;;;;5054405;28;20087;-60
2024/03/25 00:04:02;;;;;;;17.75;7.15;;;;;;;;;;5054485;28;20049;-60
2024/03/25 00:06:33;;;;;;;19.90;8.20;;;;;;;;;;5053994;28;20093;-60
2024/03/25 00:08:59;;;;;;;21.63;7.53;;;;;;;;;;5054344;28;20049;-60
2024/03/25 00:11:25;;;;;;;19.58;7.55;;;;;;;;;;5054074;28;20128;-59
2024/03/25 00:13:51;;;;;;;26.98;8.23;;;;;;;;;;5054250;28;20056;-59
2024/03/25 00:16:18;;;;;;;18.42;7.90;;;;;;;;;;5054176;28;20402;-59
2024/03/25 00:18:45;;;;;;;16.58;7.07;;;;;;;;;;5054052;28;20049;-60
2024/03/25 00:21:12;;;;;;;17.52;7.88;;;;;;;;;;5053914;28;20060;-59
2024/03/25 00:23:38;;;;;;;20.08;7.55;;;;;;;;;;5053939;28;20499;-59
2024/03/25 00:26:05;;;;;;;16.10;6.57;;;;;;;;;;5053899;28;20075;-59
2024/03/25 00:28:31;;;;;;;20.80;7.80;;;;;;;;;;5054300;28;20064;-59
2024/03/25 00:30:57;;;;;;;14.52;6.88;;;;;;;;;;5053642;28;20056;-59
2024/03/25 00:33:24;;;;;;;19.55;7.70;;;;;;;;;;5053894;28;20045;-60
2024/03/25 00:35:52;;;;;;;16.60;7.65;;;;;;;;;;5053477;28;20060;-59
2024/03/25 00:38:19;;;;;;;17.13;7.63;;;;;;;;;;5053731;28;20057;-59
2024/03/25 00:40:46;;;;;;;17.10;7.93;;;;;;;;;;5053373;28;20502;-59
2024/03/25 00:43:12;;;;;;;21.30;8.10;;;;;;;;;;5054051;28;20052;-59
2024/03/25 00:45:39;;;;;;;21.23;8.57;;;;;;;;;;5053357;28;20092;-60
2024/03/25 00:48:05;;;;;;;21.00;8.25;;;;;;;;;;5053502;28;20406;-59
2024/03/25 00:50:32;;;;;;;20.42;8.27;;;;;;;;;;5053645;28;20226;-59
2024/03/25 00:52:59;;;;;;;19.42;8.82;;;;;;;;;;5053514;28;20056;-59
2024/03/25 00:55:26;;;;;;;18.80;9.25;;;;;;;;;;5053271;28;20063;-59
2024/03/25 00:57:52;;;;;;;23.23;9.15;;;;;;;;;;5053296;28;20505;-59
2024/03/25 01:00:19;;;;;;;20.15;8.90;;;;;;;;;;5053422;28;20053;-59
2024/03/25 01:02:45;;;;;;;20.65;7.80;;;;;;;;;;5053676;28;20052;-59
2024/03/25 01:05:12;;;;;;;20.63;8.30;;;;;;;;;;5053611;28;20132;-59
2024/03/25 01:07:38;;;;;;;22.52;8.80;;;;;;;;;;5053024;28;20052;-59
2024/03/25 01:10:07;;;;;;;20.75;8.15;;;;;;;;;;5053660;28;20049;-59
2024/03/25 01:12:33;;;;;;;20.80;7.57;;;;;;;;;;5053368;28;20056;-60
2024/03/25 01:15:00;;;;;;;19.95;7.60;;;;;;;;;;5053261;28;20052;-59
2024/03/25 01:17:25;;;;;;;26.10;8.52;;;;;;;;;;5052874;28;20482;-59
2024/03/25 01:19:53;;;;;;;25.00;9.38;;;;;;;;;;5053314;28;20064;-59
2024/03/25 01:22:18;;;;;;;24.65;8.73;;;;;;;;;;5052726;28;20061;-59
2024/03/25 01:24:45;;;;;;;21.55;8.30;;;;;;;;;;5052847;28;20053;-59
2024/03/25 01:27:13;;;;;;;23.08;9.23;;;;;;;;;;5053030;28;20048;-59
2024/03/25 01:29:39;;;;;;;21.25;8.68;;;;;;;;;;5053230;28;20510;-59
2024/03/25 01:32:05;;;;;;;22.52;10.07;;;;;;;;;;5052630;28;20414;-59
2024/03/25 01:34:32;;;;;;;27.02;10.20;;;;;;;;;;5053155;28;20044;-59
2024/03/25 01:36:58;;;;;;;27.50;9.63;;;;;;;;;;5052098;28;20060;-59
2024/03/25 01:39:25;;;;;;;21.95;8.43;;;;;;;;;;5052815;28;20052;-59
2024/03/25 01:41:51;;;;;;;22.38;9.50;;;;;;;;;;5052579;28;20056;-60
2024/03/25 01:44:19;;;;;;;22.75;10.50;;;;;;;;;;5052364;28;20506;-59
2024/03/25 01:46:45;;;;;;;29.95;11.40;;;;;;;;;;5052541;28;20057;-59
2024/03/25 01:49:12;;;;;;;29.33;11.55;;;;;;;;;;5052767;28;20406;-59
2024/03/25 01:51:38;;;;;;;26.58;11.77;;;;;;;;;;5053053;28;20053;-59
2024/03/25 01:54:05;;;;;;;27.02;12.52;;;;;;;;;;5052490;28;20049;-59
2024/03/25 01:56:33;;;;;;;32.72;12.23;;;;;;;;;;5052391;28;20060;-59
2024/03/25 01:59:00;;;;;;;25.75;12.10;;;;;;;;;;5052524;28;20403;-59
2024/03/25 02:01:28;;;;;;;24.05;11.45;;;;;;;;;;5052660;28;20498;-58
2024/03/25 02:03:55;;;;;;;25.77;11.57;;;;;;;;;;5052826;28;20049;-59
2024/03/25 02:06:21;;;;;;;29.35;13.27;;;;;;;;;;5052396;28;20521;-59
2024/03/25 02:08:49;;;;;;;26.23;11.45;;;;;;;;;;5052519;28;20052;-59
2024/03/25 02:11:15;;;;;;;23.90;10.40;;;;;;;;;;5052477;28;20494;-60
2024/03/25 02:13:42;;;;;;;24.92;10.07;;;;;;;;;;5052294;28;20040;-60
2024/03/25 02:16:07;;;;;;;27.92;10.15;;;;;;;;;;5052487;28;20060;-59
2024/03/25 02:18:36;;;;;;;24.73;9.18;;;;;;;;;;5052532;28;20405;-59
2024/03/25 02:21:01;;;;;;;24.73;9.80;;;;;;;;;;5052351;28;20065;-59
2024/03/25 02:23:28;;;;;;;15.95;7.72;;;;;;;;;;5051942;28;20080;-59
2024/03/25 02:25:55;;;;;;;22.95;9.27;;;;;;;;;;5052192;28;20068;-60
2024/03/25 02:28:22;;;;;;;22.75;8.63;;;;;;;;;;5051780;28;20052;-59
2024/03/25 02:30:48;;;;;;;21.42;8.82;;;;;;;;;;5051919;28;20049;-59
2024/03/25 02:33:15;;;;;;;22.63;8.85;;;;;;;;;;5052246;28;20080;-59
2024/03/25 02:35:41;;;;;;;23.90;9.15;;;;;;;;;;5052340;28;20052;-59
2024/03/25 02:38:08;;;;;;;23.50;9.73;;;;;;;;;;5052029;28;20060;-59
2024/03/25 02:40:34;;;;;;;22.52;8.70;;;;;;;;;;5051719;28;20052;-59
2024/03/25 02:43:07;;;;;;;22.02;9.13;;;;;;;;;;5051971;28;20466;-59
2024/03/25 02:45:35;;;;;;;25.00;10.52;;;;;;;;;;5051611;28;20086;-59
2024/03/25 02:48:02;;;;;;;26.02;9.00;;;;;;;;;;5051883;28;20413;-59
2024/03/25 02:50:28;;;;;;;23.27;9.27;;;;;;;;;;5054193;28;20057;-59
2024/03/25 02:52:54;;;;;;;18.23;8.45;;;;;;;;;;5055332;28;20045;-59
2024/03/25 02:55:20;;;;;;;24.88;9.07;;;;;;;;;;5055891;28;20406;-59
2024/03/25 02:57:47;;;;;;;20.50;8.82;;;;;;;;;;5055476;28;20079;-59
2024/03/25 03:00:15;;;;;;;22.80;8.30;;;;;;;;;;5056074;28;20056;-59
2024/03/25 03:02:41;;;;;;;22.13;8.43;;;;;;;;;;5055072;28;20049;-59
2024/03/25 03:05:08;;;;;;;19.48;8.43;;;;;;;;;;5055663;28;20067;-59
2024/03/25 03:07:34;;;;;;;22.67;9.15;;;;;;;;;;5055497;28;20053;-60
2024/03/25 03:10:00;;;;;;;22.92;8.43;;;;;;;;;;5056034;28;20048;-59
2024/03/25 03:12:27;;;;;;;21.20;8.80;;;;;;;;;;5055493;28;20053;-59
2024/03/25 03:14:53;;;;;;;21.38;8.65;;;;;;;;;;5055648;28;20513;-60
2024/03/25 03:17:21;;;;;;;21.25;7.95;;;;;;;;;;5055244;28;20045;-59
2024/03/25 03:19:48;;;;;;;21.60;8.10;;;;;;;;;;5055847;28;20057;-59
2024/03/25 03:22:14;;;;;;;20.42;8.60;;;;;;;;;;5055172;28;20059;-59
2024/03/25 03:24:40;;;;;;;17.05;7.57;;;;;;;;;;5055078;28;20490;-59
2024/03/25 03:27:07;;;;;;;18.80;8.10;;;;;;;;;;5055567;28;20053;-59
2024/03/25 03:29:34;;;;;;;23.92;8.50;;;;;;;;;;5054817;28;20133;-60
2024/03/25 03:31:59;;;;;;;21.77;7.78;;;;;;;;;;5055507;28;20056;-57
2024/03/25 03:34:28;;;;;;;19.08;8.30;;;;;;;;;;5054460;28;20475;-60
2024/03/25 03:36:54;;;;;;;26.77;8.68;;;;;;;;;;5055047;28;20120;-59
2024/03/25 03:39:20;;;;;;;21.45;8.02;;;;;;;;;;5055050;28;20060;-59
2024/03/25 03:41:46;;;;;;;24.20;9.07;;;;;;;;;;5055229;28;20053;-59
2024/03/25 03:44:15;;;;;;;20.08;8.05;;;;;;;;;;5054371;28;20053;-58
2024/03/25 03:46:40;;;;;;;22.55;9.38;;;;;;;;;;5054753;28;20510;-59
2024/03/25 03:49:07;;;;;;;26.02;9.85;;;;;;;;;;5054913;28;20102;-59
2024/03/25 03:51:34;;;;;;;31.15;11.10;;;;;;;;;;5054461;28;20065;-59
2024/03/25 03:54:01;;;;;;;24.63;10.10;;;;;;;;;;5054536;28;20060;-58
2024/03/25 03:56:27;;;;;;;26.92;10.82;;;;;;;;;;5054870;28;20082;-58
2024/03/25 03:58:54;;;;;;;24.00;11.13;;;;;;;;;;5054723;28;20506;-59
2024/03/25 04:01:20;;;;;;;26.58;11.90;;;;;;;;;;5054223;28;20049;-58
2024/03/25 04:03:46;;;;;;;29.45;12.15;;;;;;;;;;5054123;28;20053;-58
2024/03/25 04:06:12;;;;;;;26.50;12.00;;;;;;;;;;5054376;28;20060;-60
2024/03/25 04:08:41;;;;;;;25.77;12.07;;;;;;;;;;5054616;28;20053;-60
2024/03/25 04:11:07;;;;;;;23.80;12.05;;;;;;;;;;5054716;28;20055;-60
2024/03/25 04:13:34;;;;;;;27.65;11.18;;;;;;;;;;5054186;28;20057;-60
2024/03/25 04:16:02;;;;;;;18.83;10.20;;;;;;;;;;5054269;28;20423;-59
2024/03/25 04:18:29;;;;;;;25.05;11.20;;;;;;;;;;5054276;28;20060;-58
2024/03/25 04:20:55;;;;;;;32.05;11.95;;;;;;;;;;5054373;28;20053;-59
2024/03/25 04:23:21;;;;;;;27.67;11.65;;;;;;;;;;5053833;28;20045;-59
2024/03/25 04:25:49;;;;;;;21.88;10.35;;;;;;;;;;5054009;28;20513;-58
2024/03/25 04:28:15;;;;;;;24.88;12.20;;;;;;;;;;5053693;28;20049;-60
2024/03/25 04:30:43;;;;;;;29.88;11.43;;;;;;;;;;5054640;28;20064;-60
2024/03/25 04:33:10;;;;;;;25.30;11.45;;;;;;;;;;5053989;28;20053;-59
2024/03/25 04:35:36;;;;;;;25.75;11.43;;;;;;;;;;5054030;28;20045;-60
